sensor_id;sensor_type;location;lat;lon;timestamp;temperature;humidity
5027;DHT22;2532;52.480;13.354;2024-02-04T00:01:35;9.90;99.90
5027;DHT22;2532;52.480;13.354;2024-02-04T00:04:02;9.90;99.90
5027;DHT22;2532;52.480;13.354;2024-02-04T00:06:29;9.90;99.90
5027;DHT22;2532;52.480;13.354;2024-02-04T00:08:56;9.90;99.90
5027;DHT22;2532;52.480;13.354;2024-02-04T00:11:23;10.00;99.90
5027;DHT22;2532;52.480;13.354;2024-02-04T00:13:50;10.00;99.90
5027;DHT22;2532;52.480;13.354;2024-02-04T00:16:19;10.00;99.90
5027;DHT22;2532;52.480;13.354;2024-02-04T00:18:46;10.00;99.90
5027;DHT22;2532;52.480;13.354;2024-02-04T00:21:13;10.00;99.90
5027;DHT22;2532;52.480;13.354;2024-02-04T00:23:40;10.00;99.90
5027;DHT22;2532;52.480;13.354;2024-02-04T00:26:06;9.90;99.90
5027;DHT22;2532;52.480;13.354;2024-02-04T00:28:33;9.90;99.90
5027;DHT22;2532;52.480;13.354;2024-02-04T00:31:00;10.00;99.90
5027;DHT22;2532;52.480;13.354;2024-02-04T00:33:29;9.90;99.90
5027;DHT22;2532;52.480;13.354;2024-02-04T00:35:55;9.90;99.90
5027;DHT22;2532;52.480;13.354;2024-02-04T00:38:22;9.80;99.90
5027;DHT22;2532;52.480;13.354;2024-02-04T00:40:49;9.80;99.90
5027;DHT22;2532;52.480;13.354;2024-02-04T00:43:18;9.70;99.90
5027;DHT22;2532;52.480;13.354;2024-02-04T00:45:44;9.70;99.90
5027;DHT22;2532;52.480;13.354;2024-02-04T00:48:11;9.60;99.90
5027;DHT22;2532;52.480;13.354;2024-02-04T00:50:40;9.60;99.90
5027;DHT22;2532;52.480;13.354;2024-02-04T00:53:07;9.60;99.90
5027;DHT22;2532;52.480;13.354;2024-02-04T00:55:33;9.60;99.90
5027;DHT22;2532;52.480;13.354;2024-02-04T00:58:00;9.60;99.90
5027;DHT22;2532;52.480;13.354;2024-02-04T01:00:28;9.60;99.90
5027;DHT22;2532;52.480;13.354;2024-02-04T01:02:55;9.50;99.90
5027;DHT22;2532;52.480;13.354;2024-02-04T01:05:21;9.40;99.90
5027;DHT22;2532;52.480;13.354;2024-02-04T01:07:50;9.40;99.90
5027;DHT22;2532;52.480;13.354;2024-02-04T01:10:17;9.40;99.90
5027;DHT22;2532;52.480;13.354;2024-02-04T01:12:43;9.40;99.90
5027;DHT22;2532;52.480;13.354;2024-02-04T01:15:11;9.40;99.90
5027;DHT22;2532;52.480;13.354;2024-02-04T01:17:38;9.40;99.90
5027;DHT22;2532;52.480;13.354;2024-02-04T01:20:06;9.40;99.90
5027;DHT22;2532;52.480;13.354;2024-02-04T01:22:34;9.40;99.90
5027;DHT22;2532;52.480;13.354;2024-02-04T01:25:02;9.40;99.90
5027;DHT22;2532;52.480;13.354;2024-02-04T01:27:30;9.40;99.90
5027;DHT22;2532;52.480;13.354;2024-02-04T01:29:57;9.40;99.90
5027;DHT22;2532;52.480;13.354;2024-02-04T01:32:24;9.30;99.90
5027;DHT22;2532;52.480;13.354;2024-02-04T01:34:51;9.30;99.90
5027;DHT22;2532;52.480;13.354;2024-02-04T01:37:17;9.30;99.90
5027;DHT22;2532;52.480;13.354;2024-02-04T01:39:44;9.20;99.90
5027;DHT22;2532;52.480;13.354;2024-02-04T01:42:13;9.20;99.90
5027;DHT22;2532;52.480;13.354;2024-02-04T01:44:40;9.20;99.90
5027;DHT22;2532;52.480;13.354;2024-02-04T01:47:07;9.20;99.90
5027;DHT22;2532;52.480;13.354;2024-02-04T01:49:35;9.20;99.90
5027;DHT22;2532;52.480;13.354;2024-02-04T01:52:02;9.20;99.90
5027;DHT22;2532;52.480;13.354;2024-02-04T01:54:31;9.10;99.90
5027;DHT22;2532;52.480;13.354;2024-02-04T01:56:58;9.10;99.90
5027;DHT22;2532;52.480;13.354;2024-02-04T01:59:29;9.10;99.90
5027;DHT22;2532;52.480;13.354;2024-02-04T02:01:56;9.10;99.90
5027;DHT22;2532;52.480;13.354;2024-02-04T02:04:24;9.00;99.90
5027;DHT22;2532;52.480;13.354;2024-02-04T02:06:52;9.00;99.90
5027;DHT22;2532;52.480;13.354;2024-02-04T02:09:19;8.90;99.90
5027;DHT22;2532;52.480;13.354;2024-02-04T02:11:50;8.90;99.90
5027;DHT22;2532;52.480;13.354;2024-02-04T02:14:23;8.90;99.90
5027;DHT22;2532;52.480;13.354;2024-02-04T02:16:52;8.90;99.90
5027;DHT22;2532;52.480;13.354;2024-02-04T02:19:41;8.90;99.90
5027;DHT22;2532;52.480;13.354;2024-02-04T02:22:23;8.90;99.90
5027;DHT22;2532;52.480;13.354;2024-02-04T02:24:55;8.90;99.90
5027;DHT22;2532;52.480;13.354;2024-02-04T02:27:22;8.90;99.90
5027;DHT22;2532;52.480;13.354;2024-02-04T02:29:49;8.90;99.90
5027;DHT22;2532;52.480;13.354;2024-02-04T02:32:17;8.90;99.90
5027;DHT22;2532;52.480;13.354;2024-02-04T02:34:44;8.90;99.90
5027;DHT22;2532;52.480;13.354;2024-02-04T02:37:20;8.90;99.90
5027;DHT22;2532;52.480;13.354;2024-02-04T02:39:52;8.90;99.90
5027;DHT22;2532;52.480;13.354;2024-02-04T02:42:23;8.90;99.90
5027;DHT22;2532;52.480;13.354;2024-02-04T02:44:53;8.90;99.90
5027;DHT22;2532;52.480;13.354;2024-02-04T02:47:21;8.90;99.90
5027;DHT22;2532;52.480;13.354;2024-02-04T02:49:51;8.90;99.90
5027;DHT22;2532;52.480;13.354;2024-02-04T02:52:20;8.90;99.90
5027;DHT22;2532;52.480;13.354;2024-02-04T02:54:47;8.80;99.90
5027;DHT22;2532;52.480;13.354;2024-02-04T02:57:13;8.80;99.90
5027;DHT22;2532;52.480;13.354;2024-02-04T02:59:42;8.80;99.90
5027;DHT22;2532;52.480;13.354;2024-02-04T03:02:09;8.80;99.90
5027;DHT22;2532;52.480;13.354;2024-02-04T03:04:36;8.80;99.90
5027;DHT22;2532;52.480;13.354;2024-02-04T03:07:04;8.70;99.90
5027;DHT22;2532;52.480;13.354;2024-02-04T03:09:33;8.70;99.90
5027;DHT22;2532;52.480;13.354;2024-02-04T03:11:59;8.70;99.90
5027;DHT22;2532;52.480;13.354;2024-02-04T03:14:26;8.80;99.90
5027;DHT22;2532;52.480;13.354;2024-02-04T03:16:55;8.80;99.90
5027;DHT22;2532;52.480;13.354;2024-02-04T03:19:22;8.80;99.90
5027;DHT22;2532;52.480;13.354;2024-02-04T03:21:48;8.80;99.90
5027;DHT22;2532;52.480;13.354;2024-02-04T03:24:15;8.80;99.90
5027;DHT22;2532;52.480;13.354;2024-02-04T03:26:42;8.80;99.90
5027;DHT22;2532;52.480;13.354;2024-02-04T03:29:09;8.90;99.90
5027;DHT22;2532;52.480;13.354;2024-02-04T03:31:36;8.90;99.90
5027;DHT22;2532;52.480;13.354;2024-02-04T03:34:04;8.90;99.90
5027;DHT22;2532;52.480;13.354;2024-02-04T03:36:31;8.90;99.90
5027;DHT22;2532;52.480;13.354;2024-02-04T03:38:58;8.90;99.90
5027;DHT22;2532;52.480;13.354;2024-02-04T03:41:25;8.90;99.90
5027;DHT22;2532;52.480;13.354;2024-02-04T03:43:52;8.90;99.90
5027;DHT22;2532;52.480;13.354;2024-02-04T03:46:20;8.90;99.90
5027;DHT22;2532;52.480;13.354;2024-02-04T03:48:48;8.90;99.90
5027;DHT22;2532;52.480;13.354;2024-02-04T03:51:17;8.90;99.90
5027;DHT22;2532;52.480;13.354;2024-02-04T03:53:44;8.90;99.90
5027;DHT22;2532;52.480;13.354;2024-02-04T03:56:11;8.90;99.90
5027;DHT22;2532;52.480;13.354;2024-02-04T03:58:38;8.90;99.90
5027;DHT22;2532;52.480;13.354;2024-02-04T04:01:05;8.90;99.90
5027;DHT22;2532;52.480;13.354;2024-02-04T04:03:32;9.00;99.90
5027;DHT22;2532;52.480;13.354;2024-02-04T04:05:59;8.90;99.90
5027;DHT22;2532;52.480;13.354;2024-02-04T04:08:27;8.90;99.90
5027;DHT22;2532;52.480;13.354;2024-02-04T04:10:54;8.90;99.90
5027;DHT22;2532;52.480;13.354;2024-02-04T04:13:21;8.90;99.90
5027;DHT22;2532;52.480;13.354;2024-02-04T04:15:48;8.90;99.90
5027;DHT22;2532;52.480;13.354;2024-02-04T04:18:14;8.90;99.90
5027;DHT22;2532;52.480;13.354;2024-02-04T04:20:41;8.90;99.90
5027;DHT22;2532;52.480;13.354;2024-02-04T04:23:08;8.80;99.90
5027;DHT22;2532;52.480;13.354;2024-02-04T04:25:36;8.80;99.90
5027;DHT22;2532;52.480;13.354;2024-02-04T04:28:04;8.80;99.90
5027;DHT22;2532;52.480;13.354;2024-02-04T04:30:31;8.80;99.90
5027;DHT22;2532;52.480;13.354;2024-02-04T04:32:58;8.80;99.90
5027;DHT22;2532;52.480;13.354;2024-02-04T04:35:25;8.70;99.90
5027;DHT22;2532;52.480;13.354;2024-02-04T04:37:52;8.70;99.90
5027;DHT22;2532;52.480;13.354;2024-02-04T04:40:19;8.70;99.90
5027;DHT22;2532;52.480;13.354;2024-02-04T04:42:47;8.70;99.90
5027;DHT22;2532;52.480;13.354;2024-02-04T04:45:14;8.70;99.90
5027;DHT22;2532;52.480;13.354;2024-02-04T04:47:41;8.60;99.90
5027;DHT22;2532;52.480;13.354;2024-02-04T04:50:08;8.70;99.90
5027;DHT22;2532;52.480;13.354;2024-02-04T04:52:35;8.60;99.90
5027;DHT22;2532;52.480;13.354;2024-02-04T04:55:02;8.60;99.90
5027;DHT22;2532;52.480;13.354;2024-02-04T04:57:29;8.60;99.90
5027;DHT22;2532;52.480;13.354;2024-02-04T04:59:57;8.60;99.90
5027;DHT22;2532;52.480;13.354;2024-02-04T05:02:29;8.60;99.90
5027;DHT22;2532;52.480;13.354;2024-02-04T05:04:56;8.50;99.90
5027;DHT22;2532;52.480;13.354;2024-02-04T05:07:23;8.50;99.90
5027;DHT22;2532;52.480;13.354;2024-02-04T05:09:51;8.50;99.90
5027;DHT22;2532;52.480;13.354;2024-02-04T05:12:18;8.40;99.90
5027;DHT22;2532;52.480;13.354;2024-02-04T05:14:45;8.40;99.90
5027;DHT22;2532;52.480;13.354;2024-02-04T05:17:13;8.40;99.90
5027;DHT22;2532;52.480;13.354;2024-02-04T05:19:41;8.40;99.90
5027;DHT22;2532;52.480;13.354;2024-02-04T05:22:08;8.40;99.90
5027;DHT22;2532;52.480;13.354;2024-02-04T05:24:35;8.40;99.90
5027;DHT22;2532;52.480;13.354;2024-02-04T05:27:03;8.40;99.90
5027;DHT22;2532;52.480;13.354;2024-02-04T05:29:30;8.40;99.90
5027;DHT22;2532;52.480;13.354;2024-02-04T05:31:57;8.40;99.90
5027;DHT22;2532;52.480;13.354;2024-02-04T05:34:25;8.40;99.90
5027;DHT22;2532;52.480;13.354;2024-02-04T05:36:52;8.40;99.90
5027;DHT22;2532;52.480;13.354;2024-02-04T05:39:19;8.40;99.90
5027;DHT22;2532;52.480;13.354;2024-02-04T05:41:49;8.40;99.90
5027;DHT22;2532;52.480;13.354;2024-02-04T05:44:16;8.30;99.90
5027;DHT22;2532;52.480;13.354;2024-02-04T05:46:42;8.40;99.90
5027;DHT22;2532;52.480;13.354;2024-02-04T05:49:09;8.40;99.90
5027;DHT22;2532;52.480;13.354;2024-02-04T05:51:40;8.40;99.90
5027;DHT22;2532;52.480;13.354;2024-02-04T05:54:07;8.40;99.90
5027;DHT22;2532;52.480;13.354;2024-02-04T05:56:35;8.40;99.90
5027;DHT22;2532;52.480;13.354;2024-02-04T05:59:02;8.40;99.90
5027;DHT22;2532;52.480;13.354;2024-02-04T06:01:29;8.40;99.90
5027;DHT22;2532;52.480;13.354;2024-02-04T06:03:56;8.40;99.90
5027;DHT22;2532;52.480;13.354;2024-02-04T06:06:23;8.40;99.90
5027;DHT22;2532;52.480;13.354;2024-02-04T06:08:52;8.40;99.90
5027;DHT22;2532;52.480;13.354;2024-02-04T06:11:19;8.40;99.90
5027;DHT22;2532;52.480;13.354;2024-02-04T06:13:46;8.40;99.90
5027;DHT22;2532;52.480;13.354;2024-02-04T06:16:13;8.30;99.90
5027;DHT22;2532;52.480;13.354;2024-02-04T06:18:40;8.40;99.90
5027;DHT22;2532;52.480;13.354;2024-02-04T06:21:07;8.40;99.90
5027;DHT22;2532;52.480;13.354;2024-02-04T06:23:34;8.40;99.90
5027;DHT22;2532;52.480;13.354;2024-02-04T06:26:03;8.50;99.90
5027;DHT22;2532;52.480;13.354;2024-02-04T06:28:30;8.40;99.90
5027;DHT22;2532;52.480;13.354;2024-02-04T06:31:00;8.40;99.90
5027;DHT22;2532;52.480;13.354;2024-02-04T06:33:27;8.40;99.90
5027;DHT22;2532;52.480;13.354;2024-02-04T06:35:54;8.50;99.90
5027;DHT22;2532;52.480;13.354;2024-02-04T06:38:21;8.50;99.90
5027;DHT22;2532;52.480;13.354;2024-02-04T06:40:48;8.40;99.90
5027;DHT22;2532;52.480;13.354;2024-02-04T06:43:16;8.50;99.90
5027;DHT22;2532;52.480;13.354;2024-02-04T06:45:43;8.50;99.90
5027;DHT22;2532;52.480;13.354;2024-02-04T06:48:12;8.50;99.90
5027;DHT22;2532;52.480;13.354;2024-02-04T06:50:39;8.50;99.90
5027;DHT22;2532;52.480;13.354;2024-02-04T06:53:06;8.50;99.90
5027;DHT22;2532;52.480;13.354;2024-02-04T06:55:33;8.50;99.90
5027;DHT22;2532;52.480;13.354;2024-02-04T06:58:00;8.50;99.90
5027;DHT22;2532;52.480;13.354;2024-02-04T07:00:28;8.60;99.90
5027;DHT22;2532;52.480;13.354;2024-02-04T07:02:55;8.50;99.90
5027;DHT22;2532;52.480;13.354;2024-02-04T07:05:22;8.50;99.90
5027;DHT22;2532;52.480;13.354;2024-02-04T07:07:50;8.50;99.90
5027;DHT22;2532;52.480;13.354;2024-02-04T07:10:17;8.50;99.90
5027;DHT22;2532;52.480;13.354;2024-02-04T07:12:45;8.50;99.90
5027;DHT22;2532;52.480;13.354;2024-02-04T07:15:12;8.50;99.90
5027;DHT22;2532;52.480;13.354;2024-02-04T07:17:40;8.50;99.90
5027;DHT22;2532;52.480;13.354;2024-02-04T07:20:07;8.50;99.90
5027;DHT22;2532;52.480;13.354;2024-02-04T07:22:35;8.50;99.90
5027;DHT22;2532;52.480;13.354;2024-02-04T07:25:02;8.60;99.90
5027;DHT22;2532;52.480;13.354;2024-02-04T07:27:32;8.60;99.90
5027;DHT22;2532;52.480;13.354;2024-02-04T07:29:59;8.60;99.90
5027;DHT22;2532;52.480;13.354;2024-02-04T07:32:26;8.60;99.90
5027;DHT22;2532;52.480;13.354;2024-02-04T07:34:54;8.70;99.90
5027;DHT22;2532;52.480;13.354;2024-02-04T07:37:21;8.70;99.90
5027;DHT22;2532;52.480;13.354;2024-02-04T07:39:48;8.80;99.90
5027;DHT22;2532;52.480;13.354;2024-02-04T07:42:15;8.80;99.90
5027;DHT22;2532;52.480;13.354;2024-02-04T07:44:42;8.80;99.90
5027;DHT22;2532;52.480;13.354;2024-02-04T07:47:09;8.80;99.90
5027;DHT22;2532;52.480;13.354;2024-02-04T07:49:37;8.80;99.90
5027;DHT22;2532;52.480;13.354;2024-02-04T07:52:06;8.80;99.90
5027;DHT22;2532;52.480;13.354;2024-02-04T07:54:33;8.80;99.90
5027;DHT22;2532;52.480;13.354;2024-02-04T07:57:00;8.80;99.90
5027;DHT22;2532;52.480;13.354;2024-02-04T07:59:27;8.80;99.90
5027;DHT22;2532;52.480;13.354;2024-02-04T08:01:53;8.70;99.90
5027;DHT22;2532;52.480;13.354;2024-02-04T08:04:20;8.70;99.90
5027;DHT22;2532;52.480;13.354;2024-02-04T08:06:47;8.80;99.90
5027;DHT22;2532;52.480;13.354;2024-02-04T08:09:15;8.80;99.90
5027;DHT22;2532;52.480;13.354;2024-02-04T08:11:42;8.80;99.90
5027;DHT22;2532;52.480;13.354;2024-02-04T08:14:09;8.90;99.90
5027;DHT22;2532;52.480;13.354;2024-02-04T08:16:36;8.90;99.90
5027;DHT22;2532;52.480;13.354;2024-02-04T08:19:03;8.90;99.90
5027;DHT22;2532;52.480;13.354;2024-02-04T08:21:32;9.00;99.90
5027;DHT22;2532;52.480;13.354;2024-02-04T08:23:59;9.00;99.90
5027;DHT22;2532;52.480;13.354;2024-02-04T08:26:27;9.10;99.90
5027;DHT22;2532;52.480;13.354;2024-02-04T08:28:54;9.00;99.90
5027;DHT22;2532;52.480;13.354;2024-02-04T08:31:21;9.00;99.90
5027;DHT22;2532;52.480;13.354;2024-02-04T08:33:48;9.00;99.90
5027;DHT22;2532;52.480;13.354;2024-02-04T08:36:15;9.00;99.90
5027;DHT22;2532;52.480;13.354;2024-02-04T08:38:42;9.10;99.90
5027;DHT22;2532;52.480;13.354;2024-02-04T08:41:09;9.10;99.90
5027;DHT22;2532;52.480;13.354;2024-02-04T08:43:37;9.10;99.90
5027;DHT22;2532;52.480;13.354;2024-02-04T08:46:05;9.20;99.90
5027;DHT22;2532;52.480;13.354;2024-02-04T08:48:32;9.20;99.90
5027;DHT22;2532;52.480;13.354;2024-02-04T08:50:59;9.20;99.90
5027;DHT22;2532;52.480;13.354;2024-02-04T08:53:25;9.30;99.90
5027;DHT22;2532;52.480;13.354;2024-02-04T08:55:52;9.30;99.90
5027;DHT22;2532;52.480;13.354;2024-02-04T08:58:19;9.30;99.80
5027;DHT22;2532;52.480;13.354;2024-02-04T09:00:48;9.30;99.90
5027;DHT22;2532;52.480;13.354;2024-02-04T09:03:15;9.30;99.70
5027;DHT22;2532;52.480;13.354;2024-02-04T09:05:42;9.40;99.70
5027;DHT22;2532;52.480;13.354;2024-02-04T09:08:09;9.30;99.50
5027;DHT22;2532;52.480;13.354;2024-02-04T09:10:36;9.30;99.50
5027;DHT22;2532;52.480;13.354;2024-02-04T09:13:03;9.30;99.60
5027;DHT22;2532;52.480;13.354;2024-02-04T09:15:30;9.30;99.40
5027;DHT22;2532;52.480;13.354;2024-02-04T09:17:59;9.30;99.40
5027;DHT22;2532;52.480;13.354;2024-02-04T09:20:25;9.30;99.40
5027;DHT22;2532;52.480;13.354;2024-02-04T09:22:52;9.30;99.40
5027;DHT22;2532;52.480;13.354;2024-02-04T09:25:19;9.30;99.40
5027;DHT22;2532;52.480;13.354;2024-02-04T09:27:46;9.40;99.40
5027;DHT22;2532;52.480;13.354;2024-02-04T09:30:14;9.40;99.30
5027;DHT22;2532;52.480;13.354;2024-02-04T09:32:41;9.40;99.30
5027;DHT22;2532;52.480;13.354;2024-02-04T09:35:09;9.50;99.20
5027;DHT22;2532;52.480;13.354;2024-02-04T09:37:36;9.50;99.00
5027;DHT22;2532;52.480;13.354;2024-02-04T09:40:04;9.50;98.90
5027;DHT22;2532;52.480;13.354;2024-02-04T09:42:31;9.60;98.80
5027;DHT22;2532;52.480;13.354;2024-02-04T09:44:58;9.60;98.60
5027;DHT22;2532;52.480;13.354;2024-02-04T09:47:26;9.60;98.40
5027;DHT22;2532;52.480;13.354;2024-02-04T09:49:54;9.60;98.50
5027;DHT22;2532;52.480;13.354;2024-02-04T09:52:28;9.60;98.50
5027;DHT22;2532;52.480;13.354;2024-02-04T09:54:59;9.70;98.40
5027;DHT22;2532;52.480;13.354;2024-02-04T09:57:26;9.70;98.20
5027;DHT22;2532;52.480;13.354;2024-02-04T09:59:53;9.70;97.90
5027;DHT22;2532;52.480;13.354;2024-02-04T10:02:20;9.70;97.90
5027;DHT22;2532;52.480;13.354;2024-02-04T10:04:48;9.70;97.70
5027;DHT22;2532;52.480;13.354;2024-02-04T10:07:15;9.70;97.60
5027;DHT22;2532;52.480;13.354;2024-02-04T10:09:45;9.80;97.70
5027;DHT22;2532;52.480;13.354;2024-02-04T10:12:12;9.70;97.50
5027;DHT22;2532;52.480;13.354;2024-02-04T10:14:39;9.80;97.60
5027;DHT22;2532;52.480;13.354;2024-02-04T10:17:07;9.80;97.40
5027;DHT22;2532;52.480;13.354;2024-02-04T10:19:34;9.90;97.30
5027;DHT22;2532;52.480;13.354;2024-02-04T10:22:02;9.90;97.40
5027;DHT22;2532;52.480;13.354;2024-02-04T10:24:29;9.90;97.00
5027;DHT22;2532;52.480;13.354;2024-02-04T10:26:58;10.00;96.50
5027;DHT22;2532;52.480;13.354;2024-02-04T10:29:25;10.00;96.40
5027;DHT22;2532;52.480;13.354;2024-02-04T10:31:53;10.00;96.10
5027;DHT22;2532;52.480;13.354;2024-02-04T10:34:26;9.90;96.60
5027;DHT22;2532;52.480;13.354;2024-02-04T10:36:53;10.00;96.10
5027;DHT22;2532;52.480;13.354;2024-02-04T10:39:20;10.00;96.10
5027;DHT22;2532;52.480;13.354;2024-02-04T10:41:49;10.20;96.20
5027;DHT22;2532;52.480;13.354;2024-02-04T10:44:22;10.10;96.00
5027;DHT22;2532;52.480;13.354;2024-02-04T10:46:50;10.10;95.90
5027;DHT22;2532;52.480;13.354;2024-02-04T10:49:20;10.10;95.90
5027;DHT22;2532;52.480;13.354;2024-02-04T10:51:47;10.10;95.80
5027;DHT22;2532;52.480;13.354;2024-02-04T10:54:15;10.10;95.80
5027;DHT22;2532;52.480;13.354;2024-02-04T10:56:44;10.10;95.70
5027;DHT22;2532;52.480;13.354;2024-02-04T10:59:13;10.10;95.80
5027;DHT22;2532;52.480;13.354;2024-02-04T11:01:45;10.10;95.80
5027;DHT22;2532;52.480;13.354;2024-02-04T11:04:14;10.20;95.90
5027;DHT22;2532;52.480;13.354;2024-02-04T11:06:43;10.20;95.80
5027;DHT22;2532;52.480;13.354;2024-02-04T11:09:11;10.20;95.60
5027;DHT22;2532;52.480;13.354;2024-02-04T11:11:40;10.20;95.60
5027;DHT22;2532;52.480;13.354;2024-02-04T11:14:11;10.20;95.70
5027;DHT22;2532;52.480;13.354;2024-02-04T11:17:04;10.20;96.10
5027;DHT22;2532;52.480;13.354;2024-02-04T11:19:47;10.20;95.80
5027;DHT22;2532;52.480;13.354;2024-02-04T11:22:23;10.30;95.50
5027;DHT22;2532;52.480;13.354;2024-02-04T11:27:44;10.30;95.20
5027;DHT22;2532;52.480;13.354;2024-02-04T11:30:12;10.30;95.30
5027;DHT22;2532;52.480;13.354;2024-02-04T11:32:41;10.30;95.40
5027;DHT22;2532;52.480;13.354;2024-02-04T11:35:09;10.30;95.20
5027;DHT22;2532;52.480;13.354;2024-02-04T11:37:37;10.30;95.30
5027;DHT22;2532;52.480;13.354;2024-02-04T11:40:13;10.20;95.20
5027;DHT22;2532;52.480;13.354;2024-02-04T11:42:41;10.20;95.20
5027;DHT22;2532;52.480;13.354;2024-02-04T11:45:09;10.30;95.20
5027;DHT22;2532;52.480;13.354;2024-02-04T11:47:37;10.30;95.20
5027;DHT22;2532;52.480;13.354;2024-02-04T11:50:07;10.30;95.10
5027;DHT22;2532;52.480;13.354;2024-02-04T11:52:35;10.20;95.10
5027;DHT22;2532;52.480;13.354;2024-02-04T11:55:03;10.20;94.80
5027;DHT22;2532;52.480;13.354;2024-02-04T11:57:32;10.20;94.90
5027;DHT22;2532;52.480;13.354;2024-02-04T12:00:00;10.20;95.00
5027;DHT22;2532;52.480;13.354;2024-02-04T12:02:31;10.20;95.10
5027;DHT22;2532;52.480;13.354;2024-02-04T12:04:59;10.20;95.20
5027;DHT22;2532;52.480;13.354;2024-02-04T12:07:28;10.30;95.10
5027;DHT22;2532;52.480;13.354;2024-02-04T12:09:55;10.30;95.00
5027;DHT22;2532;52.480;13.354;2024-02-04T12:12:23;10.40;95.00
5027;DHT22;2532;52.480;13.354;2024-02-04T12:14:50;10.40;94.70
5027;DHT22;2532;52.480;13.354;2024-02-04T12:17:19;10.30;94.90
5027;DHT22;2532;52.480;13.354;2024-02-04T12:19:47;10.30;94.70
5027;DHT22;2532;52.480;13.354;2024-02-04T12:22:15;10.30;94.80
5027;DHT22;2532;52.480;13.354;2024-02-04T12:24:46;10.30;94.80
5027;DHT22;2532;52.480;13.354;2024-02-04T12:27:15;10.30;94.70
5027;DHT22;2532;52.480;13.354;2024-02-04T12:29:43;10.30;94.70
5027;DHT22;2532;52.480;13.354;2024-02-04T12:32:13;10.30;94.70
5027;DHT22;2532;52.480;13.354;2024-02-04T12:34:40;10.30;94.60
5027;DHT22;2532;52.480;13.354;2024-02-04T12:37:07;10.20;94.40
5027;DHT22;2532;52.480;13.354;2024-02-04T12:39:34;10.20;94.50
5027;DHT22;2532;52.480;13.354;2024-02-04T12:42:03;10.20;94.40
5027;DHT22;2532;52.480;13.354;2024-02-04T12:44:31;10.20;94.40
5027;DHT22;2532;52.480;13.354;2024-02-04T12:46:58;10.20;94.30
5027;DHT22;2532;52.480;13.354;2024-02-04T12:49:25;10.20;94.50
5027;DHT22;2532;52.480;13.354;2024-02-04T12:51:52;10.20;94.30
5027;DHT22;2532;52.480;13.354;2024-02-04T12:54:21;10.20;94.30
5027;DHT22;2532;52.480;13.354;2024-02-04T12:56:50;10.20;94.20
5027;DHT22;2532;52.480;13.354;2024-02-04T12:59:28;10.20;94.20
5027;DHT22;2532;52.480;13.354;2024-02-04T13:01:57;10.10;94.10
5027;DHT22;2532;52.480;13.354;2024-02-04T13:04:24;10.10;94.00
5027;DHT22;2532;52.480;13.354;2024-02-04T13:06:51;10.10;93.90
5027;DHT22;2532;52.480;13.354;2024-02-04T13:09:19;10.10;93.80
5027;DHT22;2532;52.480;13.354;2024-02-04T13:11:47;10.00;93.90
5027;DHT22;2532;52.480;13.354;2024-02-04T13:14:14;10.10;94.00
5027;DHT22;2532;52.480;13.354;2024-02-04T13:16:43;10.10;94.00
5027;DHT22;2532;52.480;13.354;2024-02-04T13:19:10;10.00;93.80
5027;DHT22;2532;52.480;13.354;2024-02-04T13:21:37;10.00;94.00
5027;DHT22;2532;52.480;13.354;2024-02-04T13:24:04;10.00;93.90
5027;DHT22;2532;52.480;13.354;2024-02-04T13:26:31;10.00;94.00
5027;DHT22;2532;52.480;13.354;2024-02-04T13:28:58;10.10;94.10
5027;DHT22;2532;52.480;13.354;2024-02-04T13:31:25;10.10;94.00
5027;DHT22;2532;52.480;13.354;2024-02-04T13:33:54;10.10;94.00
5027;DHT22;2532;52.480;13.354;2024-02-04T13:36:22;10.10;93.90
5027;DHT22;2532;52.480;13.354;2024-02-04T13:38:50;10.10;94.00
5027;DHT22;2532;52.480;13.354;2024-02-04T13:41:17;10.10;94.10
5027;DHT22;2532;52.480;13.354;2024-02-04T13:43:44;10.10;94.10
5027;DHT22;2532;52.480;13.354;2024-02-04T13:46:11;10.10;94.10
5027;DHT22;2532;52.480;13.354;2024-02-04T13:48:38;10.10;94.10
5027;DHT22;2532;52.480;13.354;2024-02-04T13:51:06;10.10;94.10
5027;DHT22;2532;52.480;13.354;2024-02-04T13:53:33;10.20;94.20
5027;DHT22;2532;52.480;13.354;2024-02-04T13:56:01;10.20;94.20
5027;DHT22;2532;52.480;13.354;2024-02-04T13:58:28;10.20;94.20
5027;DHT22;2532;52.480;13.354;2024-02-04T14:00:55;10.20;94.10
5027;DHT22;2532;52.480;13.354;2024-02-04T14:03:22;10.30;94.70
5027;DHT22;2532;52.480;13.354;2024-02-04T14:05:50;10.30;94.30
5027;DHT22;2532;52.480;13.354;2024-02-04T14:08:18;10.30;94.30
5027;DHT22;2532;52.480;13.354;2024-02-04T14:10:45;10.30;94.40
5027;DHT22;2532;52.480;13.354;2024-02-04T14:13:12;10.30;94.40
5027;DHT22;2532;52.480;13.354;2024-02-04T14:15:39;10.30;94.40
5027;DHT22;2532;52.480;13.354;2024-02-04T14:18:07;10.30;94.50
5027;DHT22;2532;52.480;13.354;2024-02-04T14:20:34;10.20;94.60
5027;DHT22;2532;52.480;13.354;2024-02-04T14:23:01;10.20;94.70
5027;DHT22;2532;52.480;13.354;2024-02-04T14:25:29;10.20;94.80
5027;DHT22;2532;52.480;13.354;2024-02-04T14:27:56;10.10;94.80
5027;DHT22;2532;52.480;13.354;2024-02-04T14:30:23;10.10;95.00
5027;DHT22;2532;52.480;13.354;2024-02-04T14:32:50;10.10;95.00
5027;DHT22;2532;52.480;13.354;2024-02-04T14:35:17;10.10;95.00
5027;DHT22;2532;52.480;13.354;2024-02-04T14:37:45;10.10;95.00
5027;DHT22;2532;52.480;13.354;2024-02-04T14:40:12;10.10;95.10
5027;DHT22;2532;52.480;13.354;2024-02-04T14:42:41;10.10;95.00
5027;DHT22;2532;52.480;13.354;2024-02-04T14:45:09;10.10;95.10
5027;DHT22;2532;52.480;13.354;2024-02-04T14:47:38;10.10;95.10
5027;DHT22;2532;52.480;13.354;2024-02-04T14:50:06;10.10;95.00
5027;DHT22;2532;52.480;13.354;2024-02-04T14:52:33;10.10;95.00
5027;DHT22;2532;52.480;13.354;2024-02-04T14:55:00;10.10;95.10
5027;DHT22;2532;52.480;13.354;2024-02-04T14:57:27;10.00;95.10
5027;DHT22;2532;52.480;13.354;2024-02-04T14:59:56;10.10;95.10
5027;DHT22;2532;52.480;13.354;2024-02-04T15:02:23;10.10;95.10
5027;DHT22;2532;52.480;13.354;2024-02-04T15:04:50;10.10;95.10
5027;DHT22;2532;52.480;13.354;2024-02-04T15:07:17;10.10;95.10
5027;DHT22;2532;52.480;13.354;2024-02-04T15:09:45;10.10;95.10
5027;DHT22;2532;52.480;13.354;2024-02-04T15:12:14;10.20;95.20
5027;DHT22;2532;52.480;13.354;2024-02-04T15:14:41;10.20;95.10
5027;DHT22;2532;52.480;13.354;2024-02-04T15:17:10;10.20;95.00
5027;DHT22;2532;52.480;13.354;2024-02-04T15:19:37;10.20;95.00
5027;DHT22;2532;52.480;13.354;2024-02-04T15:22:04;10.20;95.10
5027;DHT22;2532;52.480;13.354;2024-02-04T15:24:32;10.20;95.00
5027;DHT22;2532;52.480;13.354;2024-02-04T15:27:00;10.20;95.00
5027;DHT22;2532;52.480;13.354;2024-02-04T15:29:32;10.20;95.10
5027;DHT22;2532;52.480;13.354;2024-02-04T15:32:01;10.20;95.00
5027;DHT22;2532;52.480;13.354;2024-02-04T15:34:30;10.20;94.90
5027;DHT22;2532;52.480;13.354;2024-02-04T15:37:03;10.20;94.90
5027;DHT22;2532;52.480;13.354;2024-02-04T15:39:29;10.20;95.00
5027;DHT22;2532;52.480;13.354;2024-02-04T15:41:57;10.20;94.90
5027;DHT22;2532;52.480;13.354;2024-02-04T15:44:26;10.20;94.90
5027;DHT22;2532;52.480;13.354;2024-02-04T15:46:53;10.20;94.80
5027;DHT22;2532;52.480;13.354;2024-02-04T15:49:21;10.20;94.80
5027;DHT22;2532;52.480;13.354;2024-02-04T15:51:52;10.20;94.70
5027;DHT22;2532;52.480;13.354;2024-02-04T15:54:20;10.30;94.80
5027;DHT22;2532;52.480;13.354;2024-02-04T15:56:53;10.30;94.80
5027;DHT22;2532;52.480;13.354;2024-02-04T15:59:24;10.30;94.80
5027;DHT22;2532;52.480;13.354;2024-02-04T16:01:51;10.30;94.70